createdAt,value
2022-11-05T00:00:19.943Z,97942.47
2022-11-05T00:02:46.680Z,97949.72
2022-11-05T00:05:13.769Z,97952.22
2022-11-05T00:07:43.010Z,97944.53
2022-11-05T00:10:30.495Z,97948.38
2022-11-05T00:12:59.482Z,97959.88
2022-11-05T00:15:26.046Z,97963.63
2022-11-05T00:17:52.823Z,97958.88
2022-11-05T00:20:19.413Z,97974.72
2022-11-05T00:22:46.106Z,97962.88
2022-11-05T00:25:13.085Z,97965.78
2022-11-05T00:27:40.778Z,97964.44
2022-11-05T00:30:07.818Z,97962.78
2022-11-05T00:32:36.195Z,97946.47
2022-11-05T00:35:02.789Z,97960.59
2022-11-05T00:37:29.465Z,97967.31
2022-11-05T00:39:56.052Z,97968.94
2022-11-05T00:42:22.891Z,97981.19
2022-11-05T00:44:49.444Z,97963.09
2022-11-05T00:47:16.028Z,97978.13
2022-11-05T00:49:42.684Z,97988.38
2022-11-05T00:52:09.300Z,97983.47
2022-11-05T00:54:35.859Z,97991.56
2022-11-05T00:57:04.739Z,97994.88
2022-11-05T00:59:31.785Z,97987.84
2022-11-05T01:01:58.597Z,97997.25
2022-11-05T01:04:25.401Z,98004.16
2022-11-05T01:06:52.069Z,97995.81
2022-11-05T01:09:18.617Z,98001.63
2022-11-05T01:11:45.373Z,98000.88
2022-11-05T01:14:15.000Z,98008.44
2022-11-05T01:16:41.801Z,97998.81
2022-11-05T01:19:10.284Z,98010.50
2022-11-05T01:21:37.120Z,98023.00
2022-11-05T01:24:04.013Z,98014.75
2022-11-05T01:26:31.060Z,98017.03
2022-11-05T01:28:58.916Z,98024.84
2022-11-05T01:31:26.054Z,98028.16
2022-11-05T01:33:52.668Z,98027.44
2022-11-05T01:36:19.389Z,98019.38
2022-11-05T01:38:45.978Z,98031.53
2022-11-05T01:41:12.755Z,98025.38
2022-11-05T01:43:54.264Z,98029.97
2022-11-05T01:46:29.447Z,98016.19
2022-11-05T01:49:03.396Z,98002.16
2022-11-05T01:51:31.035Z,98034.69
2022-11-05T01:54:06.083Z,98038.84
2022-11-05T01:56:38.074Z,98044.47
2022-11-05T01:59:27.559Z,98040.56
2022-11-05T02:01:55.438Z,98033.97
2022-11-05T02:04:32.860Z,98040.84
2022-11-05T02:07:00.188Z,98021.84
2022-11-05T02:09:31.868Z,98047.31
2022-11-05T02:11:58.602Z,98054.44
2022-11-05T02:14:25.229Z,98055.94
2022-11-05T02:17:04.582Z,98047.56
2022-11-05T02:19:57.499Z,98052.28
2022-11-05T02:23:00.939Z,98049.09
2022-11-05T02:25:42.480Z,98049.09
2022-11-05T02:28:49.237Z,98054.56
2022-11-05T02:31:25.092Z,98057.53
2022-11-05T02:33:59.899Z,98051.94
2022-11-05T02:36:51.534Z,98052.81
2022-11-05T02:39:30.576Z,98056.91
2022-11-05T02:42:25.957Z,98056.06
2022-11-05T02:45:04.597Z,98055.00
2022-11-05T02:47:52.192Z,98056.00
2022-11-05T02:50:21.773Z,98063.63
2022-11-05T02:52:57.426Z,98061.28
2022-11-05T02:56:02.067Z,98069.34
2022-11-05T02:58:29.543Z,98069.63
2022-11-05T03:00:59.597Z,98088.19
2022-11-05T03:03:34.630Z,98067.25
2022-11-05T03:06:19.181Z,98084.75
2022-11-05T03:09:04.341Z,98082.94
2022-11-05T03:11:34.226Z,98089.25
2022-11-05T03:14:18.931Z,98084.75
2022-11-05T03:16:59.017Z,98081.19
2022-11-05T03:19:37.939Z,98082.84
2022-11-05T03:22:25.368Z,98073.84
2022-11-05T03:24:57.619Z,98093.91
2022-11-05T03:27:31.361Z,98095.66
2022-11-05T03:30:10.455Z,98096.25
2022-11-05T03:32:42.788Z,98095.72
2022-11-05T03:35:16.462Z,98096.91
2022-11-05T03:37:46.341Z,98095.66
2022-11-05T03:40:18.239Z,98096.47
2022-11-05T03:42:49.262Z,98105.44
2022-11-05T03:45:25.550Z,98102.81
2022-11-05T03:47:57.525Z,98075.06
2022-11-05T03:50:40.069Z,98086.72
2022-11-05T03:53:15.454Z,98110.13
2022-11-05T03:55:56.775Z,98092.28
2022-11-05T03:58:23.945Z,98057.09
2022-11-05T04:00:51.000Z,98122.66
2022-11-05T04:03:17.792Z,98122.56
2022-11-05T04:05:44.730Z,98131.19
2022-11-05T04:08:14.258Z,98141.00
2022-11-05T04:10:41.399Z,98132.09
2022-11-05T04:13:11.363Z,98147.25
2022-11-05T04:15:38.279Z,98145.44
2022-11-05T04:18:05.005Z,98152.31
2022-11-05T04:20:31.589Z,98159.41
2022-11-05T04:23:04.377Z,98163.66
2022-11-05T04:25:31.040Z,98147.16
2022-11-05T04:28:00.537Z,98145.16
2022-11-05T04:30:27.309Z,98160.56
2022-11-05T04:33:06.933Z,98164.91
2022-11-05T04:35:39.643Z,98171.97
2022-11-05T04:38:12.235Z,98170.69
2022-11-05T04:40:39.109Z,98172.75
2022-11-05T04:43:10.619Z,98174.50
2022-11-05T04:45:41.944Z,98173.78
2022-11-05T04:48:08.790Z,98171.63
2022-11-05T04:50:35.507Z,98171.91
2022-11-05T04:53:02.378Z,98167.81
2022-11-05T04:55:29.436Z,98169.09
2022-11-05T04:57:55.992Z,98180.28
2022-11-05T05:00:23.816Z,98182.00
2022-11-05T05:02:50.448Z,98162.41
2022-11-05T05:05:17.540Z,98184.00
2022-11-05T05:07:44.204Z,98191.97
2022-11-05T05:10:11.882Z,98177.25
2022-11-05T05:12:38.495Z,98193.16
2022-11-05T05:15:05.858Z,98200.69
2022-11-05T05:17:32.415Z,98188.72
2022-11-05T05:19:59.110Z,98199.63
2022-11-05T05:22:25.873Z,98204.69
2022-11-05T05:24:53.000Z,98207.78
2022-11-05T05:27:20.457Z,98210.94
2022-11-05T05:29:47.162Z,98209.78
2022-11-05T05:32:13.757Z,98207.03
2022-11-05T05:34:40.436Z,98211.28
2022-11-05T05:37:07.083Z,98211.22
2022-11-05T05:39:33.714Z,98201.50
2022-11-05T05:42:00.240Z,98207.25
2022-11-05T05:44:27.107Z,98206.66
2022-11-05T05:46:54.579Z,98208.50
2022-11-05T05:49:21.231Z,98209.56
2022-11-05T05:51:50.824Z,98221.75
2022-11-05T05:54:17.465Z,98225.72
2022-11-05T05:56:44.372Z,98227.44
2022-11-05T05:59:12.280Z,98207.75
2022-11-05T06:01:39.208Z,98223.47
2022-11-05T06:04:06.012Z,98227.91
2022-11-05T06:06:32.927Z,98229.34
2022-11-05T06:08:59.529Z,98233.97
2022-11-05T06:11:26.260Z,98243.16
2022-11-05T06:13:53.052Z,98196.75
2022-11-05T06:16:19.783Z,98235.88
2022-11-05T06:18:46.949Z,98244.81
2022-11-05T06:21:16.145Z,98231.97
2022-11-05T06:23:45.001Z,98238.97
2022-11-05T06:26:14.151Z,98246.06
2022-11-05T06:28:41.194Z,98250.53
2022-11-05T06:31:09.381Z,98247.25
2022-11-05T06:33:36.109Z,98257.50
2022-11-05T06:36:04.204Z,98261.63
2022-11-05T06:38:36.686Z,98265.03
2022-11-05T06:41:09.021Z,98265.88
2022-11-05T06:43:37.539Z,98262.88
2022-11-05T06:46:04.529Z,98270.44
2022-11-05T06:48:31.180Z,98273.38
2022-11-05T06:50:57.985Z,98272.00
2022-11-05T06:53:26.412Z,98274.97
2022-11-05T06:55:53.000Z,98287.91
2022-11-05T06:58:19.718Z,98290.97
2022-11-05T07:00:47.450Z,98302.88
2022-11-05T07:03:15.322Z,98305.63
2022-11-05T07:05:49.523Z,98309.69
2022-11-05T07:08:17.004Z,98320.13
2022-11-05T07:10:43.721Z,98319.13
2022-11-05T07:13:11.044Z,98316.22
2022-11-05T07:15:38.343Z,98323.75
2022-11-05T07:18:06.214Z,98331.25
2022-11-05T07:20:34.409Z,98329.88
2022-11-05T07:23:11.823Z,98336.72
2022-11-05T07:25:39.125Z,98335.56
2022-11-05T07:28:05.910Z,98341.41
2022-11-05T07:30:33.934Z,98342.69
2022-11-05T07:33:01.006Z,98345.66
2022-11-05T07:35:28.193Z,98341.69
2022-11-05T07:37:55.546Z,98352.38
2022-11-05T07:40:24.595Z,98353.66
2022-11-05T07:42:53.330Z,98364.56
2022-11-05T07:45:20.762Z,98365.25
2022-11-05T07:47:49.351Z,98365.91
2022-11-05T07:50:18.343Z,98378.34
2022-11-05T07:52:45.053Z,98374.84
2022-11-05T07:55:12.250Z,98375.31
2022-11-05T07:58:08.713Z,98384.34
2022-11-05T08:00:37.222Z,98380.50
2022-11-05T08:03:25.275Z,98387.94
2022-11-05T08:05:53.068Z,98360.06
2022-11-05T08:08:20.084Z,98392.25
2022-11-05T08:10:47.128Z,98393.84
2022-11-05T08:13:15.168Z,98408.84
2022-11-05T08:15:42.903Z,98408.69
2022-11-05T08:18:15.062Z,98405.03
2022-11-05T08:20:43.680Z,98404.13
2022-11-05T08:23:10.962Z,98407.28
2022-11-05T08:25:37.808Z,98409.25
2022-11-05T08:28:07.172Z,98402.06
2022-11-05T08:30:34.778Z,98364.03
2022-11-05T08:33:03.965Z,98387.13
2022-11-05T08:35:31.215Z,98415.91
2022-11-05T08:38:02.387Z,98428.75
2022-11-05T08:40:31.368Z,98433.16
2022-11-05T08:42:59.424Z,98441.81
2022-11-05T08:45:26.872Z,98440.66
2022-11-05T08:48:22.630Z,98434.97
2022-11-05T08:50:49.349Z,98432.28
2022-11-05T08:53:16.667Z,98436.09
2022-11-05T08:55:43.664Z,98438.78
2022-11-05T08:58:15.255Z,98443.81
2022-11-05T09:00:43.028Z,98445.22
2022-11-05T09:03:10.600Z,98442.09
2022-11-05T09:05:39.707Z,98444.22
2022-11-05T09:08:11.471Z,98448.84
2022-11-05T09:10:39.170Z,98451.75
2022-11-05T09:13:06.092Z,98442.03
2022-11-05T09:15:33.120Z,98448.25
2022-11-05T09:18:00.100Z,98444.13
2022-11-05T09:20:26.782Z,98445.78
2022-11-05T09:22:53.567Z,98454.16
2022-11-05T09:25:20.366Z,98451.78
2022-11-05T09:27:46.926Z,98449.97
2022-11-05T09:30:14.088Z,98422.16
2022-11-05T09:32:41.517Z,98462.63
2022-11-05T09:35:09.268Z,98451.34
2022-11-05T09:37:37.553Z,98450.69
2022-11-05T09:40:05.123Z,98460.63
2022-11-05T09:42:37.774Z,98459.78
2022-11-05T09:45:10.395Z,98481.06
2022-11-05T09:47:42.664Z,98470.41
2022-11-05T09:50:16.119Z,98481.13
2022-11-05T09:52:43.018Z,98485.09
2022-11-05T09:55:28.030Z,98491.91
2022-11-05T09:57:59.293Z,98485.16
2022-11-05T10:00:26.275Z,98490.66
2022-11-05T10:02:57.990Z,98489.25
2022-11-05T10:05:26.914Z,98457.00
2022-11-05T10:07:58.033Z,98493.97
2022-11-05T10:10:45.446Z,98498.53
2022-11-05T10:13:34.950Z,98498.22
2022-11-05T10:16:07.278Z,98497.19
2022-11-05T10:18:41.192Z,98502.84
2022-11-05T10:21:32.250Z,98494.78
2022-11-05T10:23:59.273Z,98503.84
2022-11-05T10:26:27.896Z,98494.41
2022-11-05T10:28:55.093Z,98514.66
2022-11-05T10:31:22.481Z,98499.41
2022-11-05T10:33:54.402Z,98496.78
2022-11-05T10:36:22.659Z,98498.81
2022-11-05T10:38:50.289Z,98507.34
2022-11-05T10:41:44.649Z,98494.28
2022-11-05T10:44:48.365Z,98504.09
2022-11-05T10:47:32.933Z,98500.72
2022-11-05T10:50:04.193Z,98503.91
2022-11-05T10:52:36.902Z,98499.72
2022-11-05T10:55:24.917Z,98502.72
2022-11-05T10:57:52.086Z,98504.56
2022-11-05T11:00:24.671Z,98480.16
2022-11-05T11:03:00.089Z,98495.38
2022-11-05T11:05:31.289Z,98508.88
2022-11-05T11:08:06.054Z,98498.88
2022-11-05T11:10:41.498Z,98501.47
2022-11-05T11:13:47.257Z,98494.22
2022-11-05T11:16:19.652Z,98497.13
2022-11-05T11:18:46.345Z,98502.00
2022-11-05T11:21:18.664Z,98459.09
2022-11-05T11:23:57.643Z,98479.09
2022-11-05T11:26:27.968Z,98492.81
2022-11-05T11:29:05.415Z,98497.00
2022-11-05T11:31:36.993Z,98495.56
2022-11-05T11:34:07.001Z,98500.09
2022-11-05T11:36:44.674Z,98498.47
2022-11-05T11:39:21.569Z,98497.50
2022-11-05T11:41:58.665Z,98464.72
2022-11-05T11:44:40.828Z,98492.25
2022-11-05T11:47:15.679Z,98489.13
2022-11-05T11:49:49.077Z,98488.09
2022-11-05T11:52:36.886Z,98481.03
2022-11-05T11:55:09.450Z,98485.19
2022-11-05T11:57:44.168Z,98489.63
2022-11-05T12:00:11.480Z,98481.41
2022-11-05T12:03:02.018Z,98482.09
2022-11-05T12:05:53.395Z,98483.25
2022-11-05T12:08:36.250Z,98468.06
2022-11-05T12:11:13.035Z,98466.88
2022-11-05T12:13:54.964Z,98451.59
2022-11-05T12:16:28.956Z,98466.53
2022-11-05T12:19:14.044Z,98470.63
2022-11-05T12:21:53.433Z,98467.81
2022-11-05T12:24:29.301Z,98469.31
2022-11-05T12:26:55.883Z,98465.22
2022-11-05T12:29:41.616Z,98427.22
2022-11-05T12:32:28.982Z,98462.59
2022-11-05T12:35:14.578Z,98460.19
2022-11-05T12:37:41.217Z,98456.72
2022-11-05T12:40:29.190Z,98456.41
2022-11-05T12:43:12.229Z,98455.50
2022-11-05T12:45:41.617Z,98458.16
2022-11-05T12:48:35.796Z,98448.56
2022-11-05T12:51:34.168Z,98458.66
2022-11-05T12:54:06.460Z,98455.19
2022-11-05T12:56:44.313Z,98456.69
2022-11-05T12:59:14.906Z,98445.63
2022-11-05T13:01:49.051Z,98443.31
2022-11-05T13:04:41.330Z,98447.97
2022-11-05T13:07:13.800Z,98442.88
2022-11-05T13:09:49.269Z,98443.13
2022-11-05T13:12:21.333Z,98401.59
2022-11-05T13:15:01.293Z,98435.88
2022-11-05T13:17:54.905Z,98434.09
2022-11-05T13:20:28.964Z,98447.97
2022-11-05T13:23:00.494Z,98444.06
2022-11-05T13:25:37.804Z,98442.50
2022-11-05T13:28:16.494Z,98440.59
2022-11-05T13:30:50.735Z,98431.09
2022-11-05T13:33:34.468Z,98444.16
2022-11-05T13:36:10.184Z,98450.66
2022-11-05T13:38:38.050Z,98454.69
2022-11-05T13:41:30.459Z,98453.00
2022-11-05T13:44:03.076Z,98455.44
2022-11-05T13:46:55.784Z,98456.50
2022-11-05T13:49:31.293Z,98454.50
2022-11-05T13:52:18.297Z,98453.69
2022-11-05T13:54:50.822Z,98453.44
2022-11-05T13:57:32.096Z,98462.16
2022-11-05T14:00:11.081Z,98465.13
2022-11-05T14:02:45.217Z,98463.28
2022-11-05T14:05:30.061Z,98473.00
2022-11-05T14:07:59.700Z,98471.22
2022-11-05T14:10:41.264Z,98467.84
2022-11-05T14:13:22.417Z,98466.63
2022-11-05T14:16:10.354Z,98461.84
2022-11-05T14:18:47.064Z,98462.19
2022-11-05T14:21:25.839Z,98458.13
2022-11-05T14:23:57.929Z,98460.47
2022-11-05T14:26:28.730Z,98462.59
2022-11-05T14:28:58.449Z,98457.66
2022-11-05T14:32:08.193Z,98454.66
2022-11-05T14:34:53.385Z,98459.13
2022-11-05T14:37:33.559Z,98458.91
2022-11-05T14:40:25.976Z,98460.28
2022-11-05T14:42:58.952Z,98457.41
2022-11-05T14:45:52.181Z,98457.03
2022-11-05T14:48:30.933Z,98465.34
2022-11-05T14:50:59.239Z,98471.00
2022-11-05T14:53:33.714Z,98466.78
2022-11-05T14:56:17.596Z,98469.25
2022-11-05T14:58:46.084Z,98467.34
2022-11-05T15:01:15.745Z,98477.53
2022-11-05T15:03:46.228Z,98479.50
2022-11-05T15:06:33.630Z,98485.97
2022-11-05T15:09:03.090Z,98489.16
2022-11-05T15:11:53.058Z,98488.69
2022-11-05T15:14:30.490Z,98493.44
2022-11-05T15:17:08.256Z,98488.81
2022-11-05T15:19:36.535Z,98473.88
2022-11-05T15:22:18.274Z,98463.94
2022-11-05T15:24:44.933Z,98492.25
2022-11-05T15:27:38.753Z,98493.91
2022-11-05T15:30:15.394Z,98490.88
2022-11-05T15:32:42.175Z,98494.78
2022-11-05T15:35:20.416Z,98496.91
2022-11-05T15:37:54.694Z,98473.50
2022-11-05T15:40:29.904Z,98507.84
2022-11-05T15:43:17.256Z,98506.53
2022-11-05T15:46:17.308Z,98515.50
2022-11-05T15:48:49.134Z,98498.94
2022-11-05T15:51:21.313Z,98517.75
2022-11-05T15:54:08.817Z,98512.50
2022-11-05T15:56:40.044Z,98514.63
2022-11-05T15:59:16.700Z,98511.06
2022-11-05T16:01:49.672Z,98517.31
2022-11-05T16:04:21.287Z,98517.78
2022-11-05T16:06:52.699Z,98513.47
2022-11-05T16:09:27.718Z,98506.97
2022-11-05T16:12:20.468Z,98511.28
2022-11-05T16:15:08.133Z,98519.19
2022-11-05T16:17:37.602Z,98506.78
2022-11-05T16:20:25.416Z,98521.19
2022-11-05T16:22:55.400Z,98471.56
2022-11-05T16:25:28.407Z,98514.63
2022-11-05T16:27:57.160Z,98488.81
2022-11-05T16:30:24.356Z,98499.00
2022-11-05T16:32:51.527Z,98514.31
2022-11-05T16:35:21.884Z,98506.84
2022-11-05T16:37:52.043Z,98535.13
2022-11-05T16:40:24.076Z,98527.75
2022-11-05T16:42:52.739Z,98526.38
2022-11-05T16:45:22.863Z,98523.63
2022-11-05T16:47:49.547Z,98529.19
2022-11-05T16:50:25.279Z,98513.94
2022-11-05T16:52:52.802Z,98532.91
2022-11-05T16:55:19.709Z,98542.66
2022-11-05T16:57:53.305Z,98541.00
2022-11-05T17:00:21.236Z,98542.00
2022-11-05T17:02:48.342Z,98527.28
2022-11-05T17:05:23.597Z,98534.13
2022-11-05T17:07:50.741Z,98532.94
2022-11-05T17:10:18.250Z,98532.31
2022-11-05T17:12:46.097Z,98540.16
2022-11-05T17:15:34.331Z,98555.56
2022-11-05T17:18:02.633Z,98540.03
2022-11-05T17:20:40.813Z,98533.47
2022-11-05T17:23:28.121Z,98545.97
2022-11-05T17:26:00.341Z,98541.50
2022-11-05T17:28:27.681Z,98553.75
2022-11-05T17:30:54.714Z,98555.84
2022-11-05T17:33:22.857Z,98550.94
2022-11-05T17:35:50.294Z,98556.22
2022-11-05T17:38:17.141Z,98516.06
2022-11-05T17:40:44.005Z,98565.56
2022-11-05T17:43:11.265Z,98541.44
2022-11-05T17:45:46.285Z,98553.09
2022-11-05T17:48:14.304Z,98545.25
2022-11-05T17:50:46.650Z,98564.25
2022-11-05T17:53:14.875Z,98534.25
2022-11-05T17:55:43.596Z,98563.72
2022-11-05T17:58:11.102Z,98570.69
2022-11-05T18:00:38.546Z,98573.88
2022-11-05T18:03:05.340Z,98584.53
2022-11-05T18:05:33.426Z,98579.63
2022-11-05T18:08:00.329Z,98581.22
2022-11-05T18:10:26.984Z,98579.16
2022-11-05T18:12:53.775Z,98588.16
2022-11-05T18:15:20.555Z,98587.59
2022-11-05T18:17:47.719Z,98581.56
2022-11-05T18:20:19.280Z,98561.25
2022-11-05T18:22:49.784Z,98588.16
2022-11-05T18:25:17.109Z,98586.44
2022-11-05T18:27:44.288Z,98588.66
2022-11-05T18:30:11.880Z,98584.72
2022-11-05T18:32:38.888Z,98587.41
2022-11-05T18:35:05.760Z,98593.44
2022-11-05T18:37:32.589Z,98554.56
2022-11-05T18:39:59.175Z,98580.34
2022-11-05T18:42:25.856Z,98590.88
2022-11-05T18:44:52.522Z,98588.88
2022-11-05T18:47:19.231Z,98596.78
2022-11-05T18:49:45.791Z,98586.56
2022-11-05T18:52:12.737Z,98595.09
2022-11-05T18:54:39.398Z,98593.16
2022-11-05T18:57:06.144Z,98583.09
2022-11-05T18:59:38.550Z,98588.72
2022-11-05T19:02:08.328Z,98581.69
2022-11-05T19:04:36.187Z,98592.69
2022-11-05T19:07:05.128Z,98588.53
2022-11-05T19:09:38.627Z,98597.75
2022-11-05T19:12:06.575Z,98600.72
2022-11-05T19:14:34.113Z,98591.31
2022-11-05T19:17:01.748Z,98596.91
2022-11-05T19:19:28.692Z,98590.34
2022-11-05T19:21:55.449Z,98593.88
2022-11-05T19:24:22.157Z,98591.47
2022-11-05T19:26:48.749Z,98587.19
2022-11-05T19:29:15.349Z,98585.75
2022-11-05T19:31:42.142Z,98586.19
2022-11-05T19:34:08.787Z,98571.41
2022-11-05T19:36:35.482Z,98573.53
2022-11-05T19:39:07.134Z,98595.19
2022-11-05T19:41:33.802Z,98593.41
2022-11-05T19:44:00.453Z,98557.09
2022-11-05T19:46:28.055Z,98582.38
2022-11-05T19:48:54.880Z,98586.31
2022-11-05T19:51:26.696Z,98587.19
2022-11-05T19:53:55.288Z,98577.34
2022-11-05T19:56:24.592Z,98555.19
2022-11-05T19:58:52.065Z,98591.50
2022-11-05T20:01:20.123Z,98596.44
2022-11-05T20:03:47.069Z,98564.13
2022-11-05T20:06:25.372Z,98599.22
2022-11-05T20:09:21.225Z,98603.16
2022-11-05T20:11:39.244Z,98605.47
2022-11-05T20:14:07.422Z,98613.69
2022-11-05T20:16:35.381Z,98606.78
2022-11-05T20:19:04.333Z,98604.66
2022-11-05T20:21:31.283Z,98602.03
2022-11-05T20:23:59.165Z,98596.94
2022-11-05T20:26:27.439Z,98601.06
2022-11-05T20:28:54.638Z,98597.78
2022-11-05T20:31:21.735Z,98604.34
2022-11-05T20:33:49.090Z,98604.16
2022-11-05T20:36:21.598Z,98611.56
2022-11-05T20:38:53.690Z,98602.66
2022-11-05T20:41:20.475Z,98609.09
2022-11-05T20:43:47.435Z,98613.22
2022-11-05T20:46:21.761Z,98610.75
2022-11-05T20:48:49.829Z,98567.88
2022-11-05T20:51:19.314Z,98613.03
2022-11-05T20:53:46.837Z,98612.41
2022-11-05T20:56:18.737Z,98615.34
2022-11-05T20:58:45.771Z,98603.69
2022-11-05T21:01:13.409Z,98619.41
2022-11-05T21:03:40.096Z,98615.31
2022-11-05T21:06:07.776Z,98616.97
2022-11-05T21:08:38.009Z,98611.06
2022-11-05T21:11:05.996Z,98608.41
2022-11-05T21:13:36.865Z,98609.34
2022-11-05T21:16:07.351Z,98614.28
2022-11-05T21:18:39.219Z,98611.81
2022-11-05T21:21:11.978Z,98594.56
2022-11-05T21:23:38.720Z,98611.97
2022-11-05T21:26:06.726Z,98608.44
2022-11-05T21:28:34.198Z,98605.72
2022-11-05T21:31:02.627Z,98609.16
2022-11-05T21:33:30.085Z,98603.66
2022-11-05T21:35:57.554Z,98599.19
2022-11-05T21:38:24.195Z,98611.56
2022-11-05T21:40:50.995Z,98599.13
2022-11-05T21:43:17.821Z,98580.50
2022-11-05T21:45:45.206Z,98607.44
2022-11-05T21:48:12.618Z,98615.44
2022-11-05T21:50:39.792Z,98611.25
2022-11-05T21:53:06.519Z,98614.34
2022-11-05T21:55:33.180Z,98604.34
2022-11-05T21:58:04.514Z,98567.53
2022-11-05T22:00:31.239Z,98610.78
2022-11-05T22:02:58.035Z,98615.19
2022-11-05T22:05:24.691Z,98610.69
2022-11-05T22:07:51.375Z,98612.81
2022-11-05T22:10:18.355Z,98602.94
2022-11-05T22:12:46.831Z,98569.78
2022-11-05T22:15:13.962Z,98593.81
2022-11-05T22:17:46.276Z,98601.53
2022-11-05T22:20:13.898Z,98595.13
2022-11-05T22:22:40.506Z,98597.06
2022-11-05T22:25:07.539Z,98598.88
2022-11-05T22:27:34.149Z,98602.00
2022-11-05T22:30:01.121Z,98596.75
2022-11-05T22:32:27.963Z,98594.00
2022-11-05T22:34:54.727Z,98592.16
2022-11-05T22:37:21.376Z,98597.44
2022-11-05T22:39:48.468Z,98599.78
2022-11-05T22:42:15.187Z,98595.97
2022-11-05T22:44:41.941Z,98600.56
2022-11-05T22:47:08.607Z,98601.69
2022-11-05T22:49:35.385Z,98605.31
2022-11-05T22:52:02.041Z,98605.69
2022-11-05T22:54:28.911Z,98584.66
2022-11-05T22:56:55.556Z,98623.63
2022-11-05T22:59:22.265Z,98624.63
2022-11-05T23:01:49.213Z,98581.56
2022-11-05T23:04:16.424Z,98629.91
2022-11-05T23:06:43.456Z,98634.63
2022-11-05T23:09:17.588Z,98624.16
2022-11-05T23:11:51.158Z,98620.53
2022-11-05T23:14:17.922Z,98623.06
2022-11-05T23:16:44.826Z,98625.94
2022-11-05T23:19:11.930Z,98600.00
2022-11-05T23:21:38.506Z,98624.00
2022-11-05T23:24:05.841Z,98621.78
2022-11-05T23:26:36.887Z,98598.50
2022-11-05T23:29:03.774Z,98622.47
2022-11-05T23:31:30.869Z,98625.41
2022-11-05T23:33:57.507Z,98624.53
2022-11-05T23:36:24.082Z,98622.28
2022-11-05T23:38:50.956Z,98612.69
2022-11-05T23:41:17.553Z,98608.34
2022-11-05T23:43:44.217Z,98602.94
2022-11-05T23:46:10.917Z,98594.66
2022-11-05T23:48:37.797Z,98589.47
2022-11-05T23:51:05.931Z,98581.59
2022-11-05T23:53:34.666Z,98580.00
2022-11-05T23:56:07.096Z,98585.56
2022-11-05T23:58:35.191Z,98589.47
